createdAt,value
2023-03-23T15:59:38.020Z,1.80
2023-03-23T16:02:04.746Z,2.28
2023-03-23T16:04:32.137Z,1.85
2023-03-23T16:06:59.249Z,1.75
2023-03-23T16:09:26.332Z,1.63
2023-03-23T16:11:52.915Z,1.83
2023-03-23T16:14:19.421Z,1.50
2023-03-23T16:16:51.205Z,1.80
2023-03-23T16:19:20.333Z,1.58
2023-03-23T16:21:47.117Z,1.60
2023-03-23T16:24:13.685Z,1.42
2023-03-23T16:26:40.988Z,1.67
2023-03-23T16:29:28.299Z,1.35
2023-03-23T16:32:00.814Z,1.52
2023-03-23T16:34:29.043Z,1.50
2023-03-23T16:36:56.409Z,1.42
2023-03-23T16:39:23.366Z,1.50
2023-03-23T16:41:50.035Z,1.40
2023-03-23T16:44:16.745Z,1.60
2023-03-23T16:46:43.369Z,1.60
2023-03-23T16:49:09.931Z,1.20
2023-03-23T16:51:36.620Z,1.65
2023-03-23T16:54:03.161Z,1.65
2023-03-23T16:56:29.752Z,1.55
2023-03-23T16:58:56.363Z,1.30
2023-03-23T17:01:23.063Z,1.40
2023-03-23T17:03:49.856Z,1.42
2023-03-23T17:06:16.453Z,1.40
2023-03-23T17:08:43.109Z,1.50
2023-03-23T17:11:11.368Z,1.25
2023-03-23T17:13:38.067Z,1.52
2023-03-23T17:16:05.064Z,1.33
2023-03-23T17:18:31.968Z,1.40
2023-03-23T17:20:58.513Z,1.20
2023-03-23T17:23:25.162Z,1.38
2023-03-23T17:25:52.114Z,1.38
2023-03-23T17:28:20.759Z,1.60
2023-03-23T17:30:47.789Z,1.85
2023-03-23T17:33:14.541Z,1.70
2023-03-23T17:35:42.335Z,1.50
2023-03-23T17:38:09.210Z,1.50
2023-03-23T17:40:35.807Z,1.42
2023-03-23T17:43:02.422Z,1.40
2023-03-23T17:45:29.089Z,1.60
2023-03-23T17:47:55.817Z,1.48
2023-03-23T17:50:22.521Z,1.33
2023-03-23T17:52:49.914Z,1.70
2023-03-23T17:55:16.750Z,1.63
2023-03-23T17:57:44.808Z,1.40
2023-03-23T18:00:12.501Z,1.50
2023-03-23T18:02:39.616Z,1.67
2023-03-23T18:05:08.317Z,1.58
2023-03-23T18:07:35.116Z,1.35
2023-03-23T18:10:01.842Z,1.50
2023-03-23T18:12:28.662Z,1.35
2023-03-23T18:14:58.659Z,1.42
2023-03-23T18:17:26.311Z,1.17
2023-03-23T18:19:53.178Z,1.48
2023-03-23T18:22:20.010Z,1.40
2023-03-23T18:24:47.319Z,1.40
2023-03-23T18:27:13.898Z,1.30
2023-03-23T18:29:40.819Z,1.40
2023-03-23T18:32:08.114Z,1.20
2023-03-23T18:34:36.387Z,1.40
2023-03-23T18:37:03.234Z,1.50
2023-03-23T18:39:31.742Z,1.30
2023-03-23T18:41:58.488Z,1.20
2023-03-23T18:44:25.563Z,1.17
2023-03-23T18:46:52.418Z,1.00
2023-03-23T18:49:19.084Z,1.17
2023-03-23T18:51:45.713Z,1.08
2023-03-23T18:54:13.362Z,1.17
2023-03-23T18:56:40.227Z,1.20
2023-03-23T18:59:06.992Z,1.20
2023-03-23T19:01:33.584Z,1.27
2023-03-23T19:04:00.408Z,1.00
2023-03-23T19:06:27.781Z,1.00
2023-03-23T19:08:54.890Z,1.20
2023-03-23T19:11:26.046Z,1.20
2023-03-23T19:14:01.503Z,1.15
2023-03-23T19:16:29.079Z,1.45
2023-03-23T19:18:55.712Z,1.23
2023-03-23T19:21:25.793Z,1.20
2023-03-23T19:23:54.063Z,0.85
2023-03-23T19:26:27.804Z,1.05
2023-03-23T19:29:24.685Z,1.10
2023-03-23T19:31:41.927Z,1.05
2023-03-23T19:34:10.449Z,1.20
2023-03-23T19:36:37.317Z,1.40
2023-03-23T19:39:06.389Z,1.00
2023-03-23T19:41:34.617Z,1.50
2023-03-23T19:44:01.449Z,1.48
2023-03-23T19:46:30.442Z,1.55
2023-03-23T19:48:57.920Z,1.67
2023-03-23T19:51:24.683Z,2.05
2023-03-23T19:53:51.329Z,1.98
2023-03-23T19:56:21.594Z,2.30
2023-03-23T19:58:48.197Z,2.20
2023-03-23T20:01:15.973Z,2.22
2023-03-23T20:03:43.343Z,2.40
2023-03-23T20:06:12.366Z,3.40
2023-03-23T20:08:44.127Z,2.97
2023-03-23T20:13:40.196Z,3.03
2023-03-23T20:16:07.782Z,3.80
2023-03-23T20:18:34.420Z,2.88
2023-03-23T20:21:09.216Z,3.03
2023-03-23T20:23:36.806Z,3.10
2023-03-23T20:26:13.149Z,3.90
2023-03-23T20:28:40.740Z,3.72
2023-03-23T20:31:19.412Z,4.13
2023-03-23T20:34:00.698Z,3.67
2023-03-23T20:36:36.204Z,3.60
2023-03-23T20:39:21.313Z,3.67
2023-03-23T20:41:50.369Z,3.72
2023-03-23T20:44:18.275Z,3.90
2023-03-23T20:46:48.626Z,4.32
2023-03-23T20:49:16.030Z,4.53
2023-03-23T20:51:43.662Z,4.18
2023-03-23T20:54:10.800Z,4.82
2023-03-23T20:56:40.361Z,5.00
2023-03-23T20:59:07.033Z,4.80
2023-03-23T21:01:33.882Z,4.18
2023-03-23T21:04:03.399Z,4.32
2023-03-23T21:06:31.100Z,5.15
2023-03-23T21:08:58.037Z,4.95
2023-03-23T21:11:26.658Z,4.07
2023-03-23T21:13:53.382Z,4.38
2023-03-23T21:16:20.171Z,4.53
2023-03-23T21:18:47.574Z,4.55
2023-03-23T21:21:14.958Z,4.82
2023-03-23T21:23:46.717Z,4.78
2023-03-23T21:26:17.119Z,4.30
2023-03-23T21:28:44.874Z,5.07
2023-03-23T21:31:15.093Z,4.63
2023-03-23T21:33:41.778Z,4.30
2023-03-23T21:36:08.409Z,4.47
2023-03-23T21:38:35.314Z,4.65
2023-03-23T21:41:07.405Z,4.55
2023-03-23T21:43:33.964Z,5.00
2023-03-23T21:46:03.708Z,4.50
2023-03-23T21:48:30.498Z,4.95
2023-03-23T21:50:57.292Z,4.38
2023-03-23T21:53:25.413Z,4.60
2023-03-23T21:55:52.606Z,4.22
2023-03-23T21:58:20.654Z,4.97
2023-03-23T22:00:49.973Z,4.70
2023-03-23T22:03:19.155Z,4.30
2023-03-23T22:05:46.419Z,4.68
2023-03-23T22:08:13.241Z,4.55
2023-03-23T22:10:41.732Z,4.60
2023-03-23T22:13:08.534Z,4.75
2023-03-23T22:15:35.300Z,4.88
2023-03-23T22:18:02.045Z,4.50
2023-03-23T22:20:29.482Z,4.38
2023-03-23T22:22:56.104Z,5.20
2023-03-23T22:25:22.826Z,4.70
2023-03-23T22:27:49.688Z,4.85
2023-03-23T22:30:16.268Z,4.57
2023-03-23T22:32:42.887Z,5.00
2023-03-23T22:35:12.482Z,4.80
2023-03-23T22:37:39.131Z,4.57
2023-03-23T22:40:11.382Z,4.28
2023-03-23T22:42:38.002Z,4.85
2023-03-23T22:45:05.062Z,4.70
2023-03-23T22:47:31.654Z,4.20
2023-03-23T22:49:58.273Z,4.47
2023-03-23T22:52:24.840Z,4.55
2023-03-23T22:54:51.550Z,4.25
2023-03-23T22:57:18.158Z,4.20
2023-03-23T22:59:48.400Z,4.00
2023-03-23T23:02:15.657Z,4.45
2023-03-23T23:04:43.048Z,4.28
2023-03-23T23:07:14.440Z,4.20
2023-03-23T23:09:42.198Z,4.20
2023-03-23T23:12:09.777Z,4.30
2023-03-23T23:14:37.545Z,4.93
2023-03-23T23:17:04.877Z,5.10
2023-03-23T23:19:32.428Z,4.70
2023-03-23T23:22:09.255Z,3.97
2023-03-23T23:24:43.512Z,4.90
2023-03-23T23:27:10.160Z,4.13
2023-03-23T23:29:36.757Z,4.10
2023-03-23T23:32:03.526Z,3.97
2023-03-23T23:34:30.376Z,4.32
2023-03-23T23:36:59.505Z,4.13
2023-03-23T23:39:27.567Z,4.35
2023-03-23T23:41:54.180Z,4.25
2023-03-23T23:44:21.026Z,4.88
2023-03-23T23:46:47.627Z,4.60
2023-03-23T23:49:15.109Z,4.90
2023-03-23T23:51:41.753Z,4.05
2023-03-23T23:54:09.668Z,4.55
2023-03-23T23:56:36.323Z,4.32
2023-03-23T23:59:02.953Z,4.68
